x

West Bermuda - 240 Nm West Of Bermuda (41048) Wave Buoy

10:50am - Sat 6th Feb 2016 All times are UTC.

  • Sig Wave height 10.8ft
  • Swell Direction
  • Peak Period 11s
  • Average Period 8s
  • Wind
    16mph, 20mph gusts
  • Sea Temp 70°f
  • Air Temp 64°f
  • Sea Pressure 1022mb

More Historic Weather Station data

Upgrade to MSW Pro to gain access to the past 30 days of data for over 8000 Wavebouys and Weather Stations around the globe.

Join Pro

Comparision Forecast

View Surf forecast
   
Sat 02/06 10:50am 11ft 11s 8s 16 20 mph 1022mb 70f 64f
9:50am 11.5ft 10s 7s 18 22 mph 1021.2mb 70f 64f
8:50am 10ft 10s 7s 22 27 mph 1020.9mb 70f 64f
7:50am 10ft 8s 7s 22 27 mph 1020.9mb 70f 64f
6:50am 10ft 8s 7s 22 27 mph 1020.9mb 70f 64f
5:50am 9ft 7s 6s 22 25 mph 1020.9mb 70f 64f
4:50am 9ft 8s 6s 25 29 mph 1020.5mb 70f 64f
3:50am 8ft 7s 6s 25 31 mph 1020.5mb 70f 65f
2:50am 7ft 10s 6s 22 27 mph 1020.2mb 70f 66f
1:50am 7.5ft 9s 6s 25 29 mph 1019.6mb 70f 66f
12:50am 6ft 10s 5s 27 31 mph 1019.1mb 70f 66f
Fri 02/05 11:50pm 6ft 10s 6s 27 34 mph 1018.6mb 70f 67f
10:50pm 6ft 10s 7s 13 16 mph 1017.6mb 70f 71f
9:50pm 6ft 9s 7s 13 16 mph 1016.9mb 70f 70f
8:50pm 5ft 8s 6s 13 16 mph 1016.6mb 70f 70f
7:50pm 6ft 10s 6s 16 18 mph 1016.6mb 70f 71f
6:50pm 5.5ft 8s 6s 18 20 mph 1015.7mb 70f 70f
5:50pm 5.5ft 9s 6s 18 20 mph 1016.4mb 70f 70f
4:50pm 5ft 9s 6s 11 13 mph 1018.4mb 70f 68f
3:50pm 5.5ft 8s 6s 16 18 mph 1019.6mb 70f 68f
2:50pm 5ft 9s 6s 13 16 mph 1020.1mb 70f 70f
1:50pm 5ft 9s 6s 9 13 mph 1020.3mb 70f 69f
11:50am 5ft 9s 6s 16 18 mph 1019.9mb 70f 69f
10:50am 5.5ft 9s 6s 13 16 mph 1019.7mb 70f 70f
9:50am 5.5ft 9s 6s 11 13 mph 1019.7mb 70f 69f
8:50am 5ft 9s 6s 16 18 mph 1019.5mb 70f 69f
7:50am 5ft 9s 6s 13
mph
1020mb 70f 69f
6:50am 5ft 9s 6s 13 16 mph 1020.7mb 70f 69f
5:50am 5ft 9s 6s 13 16 mph 1021.3mb 70f 69f
4:50am 5.5ft 8s 6s 16 20 mph 1021.8mb 70f 69f
3:50am 5ft 7s 6s 18 22 mph 1022.1mb 70f 69f
2:50am 5ft 9s 6s 13 18 mph 1022.9mb 70f 69f
1:50am 5ft 9s 6s 13 16 mph 1023.3mb 70f 69f
12:50am 5.5ft 9s 6s 16 18 mph 1023.4mb 70f 69f
Thu 02/04 11:50pm 5ft 8s 6s 16 20 mph 1023.2mb 70f 69f
10:50pm 5ft 6s 6s 16 20 mph 1023mb 70f 70f
9:50pm 5ft 9s 6s 16 18 mph 1022.8mb 70f 70f
8:50pm 5ft 8s 6s 16 18 mph 1022.7mb 70f 70f
7:50pm 5ft 8s 6s 16 20 mph 1022.5mb 71f 70f
6:50pm 4.5ft 9s 6s 18 20 mph 1022.6mb 71f 70f
5:50pm 4.5ft 9s 6s 13 16 mph 1023.4mb 71f 70f
4:50pm 4.5ft 9s 6s 9 11 mph 1024.5mb 71f 70f
3:50pm 4.5ft 10s 6s 9 11 mph 1025.5mb 70f 70f
2:50pm 4.5ft 9s 6s 11 13 mph 1026.1mb 70f 70f
1:50pm 4.5ft 8s 6s 7
mph
1026.1mb 70f 70f
12:50pm 5ft 9s 6s 7
mph
1025.8mb 70f 70f
11:50am 5ft 9s 6s 7 9 mph 1025.7mb 70f 69f
10:50am 5ft 8s 6s 9 11 mph 1025.1mb 70f 69f
9:50am 5ft 9s 6s 11 13 mph 1024.6mb 70f 69f
8:50am 5ft 10s 6s 13 16 mph 1023.8mb 70f 69f
7:50am 5ft 8s 6s 18 22 mph 1023.6mb 70f 69f
6:50am 5.5ft 9s 6s 18 22 mph 1023.7mb 70f 69f
5:50am 5.5ft 9s 6s 16 20 mph 1024.3mb 70f 69f
4:50am 5.5ft 7s 6s 18 22 mph 1024.4mb 70f 69f
3:50am 5.5ft 9s 5s 18 22 mph 1024.9mb 70f 69f
2:50am 5.5ft 10s 6s 20 22 mph 1025mb 70f 69f
1:50am 6ft 8s 6s 20 25 mph 1024.7mb 70f 69f
12:50am 5.5ft 7s 6s 18 22 mph 1025mb 70f 69f
Wed 02/03 11:50pm 5.5ft 8s 6s 18 22 mph 1024.7mb 70f 69f
10:50pm 6ft 8s 6s 18 22 mph 1024.3mb 70f 69f
9:50pm 5ft 7s 6s 16 20 mph 1024.1mb 70f 69f
8:50pm 5ft 6s 6s 16 18 mph 1023.8mb 71f 69f
7:50pm 5ft 6s 6s 16 18 mph 1023.9mb 71f 69f
6:50pm 5ft 6s 6s 16 18 mph 1023.9mb 71f 69f
5:50pm 5ft 9s 6s 16 18 mph 1024.1mb 71f 69f
4:50pm 4.5ft 9s 6s 13 18 mph 1024.7mb 70f 69f
3:50pm 5ft 6s 6s 13 16 mph 1025.5mb 70f 69f
2:50pm 4.5ft 9s 6s 16 18 mph 1025.8mb 70f 70f
1:50pm 4.5ft 6s 5s 16 20 mph 1025.4mb 70f 69f
12:50pm 4.5ft 9s 5s 16 18 mph 1025.1mb 70f 69f
11:50am 4.5ft 9s 5s 16 18 mph 1024.4mb 70f 69f
10:50am 4.5ft 9s 5s 16 20 mph 1023.8mb 70f 69f
9:50am 4.5ft 9s 5s 16 18 mph 1023.2mb 70f 69f
8:50am 4.5ft 9s 5s 16 18 mph 1022.8mb 70f 69f
7:50am 4ft 9s 5s 16 20 mph 1022.7mb 70f 69f
6:50am 4.5ft 9s 5s 16 18 mph 1022.6mb 70f 69f
5:50am 4.5ft 9s 5s 16 18 mph 1022.7mb 70f 69f
4:50am 4ft 9s 5s 18 20 mph 1022.8mb 70f 69f
3:50am 4ft 9s 5s 18 20 mph 1023mb 70f 69f
2:50am 3.5ft 7s 5s 13 16 mph 1023mb 70f 70f
1:50am 3.5ft 10s 5s 13 16 mph 1022.9mb 70f 69f
12:50am 4ft 8s 5s 13 16 mph 1022.3mb 70f 70f
Tue 02/02 11:50pm 3.5ft 9s 5s 18 20 mph 1021.8mb 70f 70f
10:50pm 3.5ft 9s 5s 16 20 mph 1021.3mb 70f 70f
9:50pm 3.5ft 9s 5s 18 20 mph 1020.5mb 70f 70f
8:50pm 3.5ft 9s 6s 16 18 mph 1019.7mb 71f 71f
7:50pm 3.5ft 9s 6s 11 13 mph 1019.3mb 71f 71f
6:50pm 3.5ft 10s 6s 13 16 mph 1019.2mb 71f 70f
5:50pm 3.5ft 8s 6s 13 16 mph 1019.5mb 70f 70f
4:50pm 3.5ft 8s 6s 13 16 mph 1020.1mb 70f 70f
3:50pm 3.5ft 9s 6s 11 13 mph 1020.4mb 70f 70f
2:50pm 3.5ft 8s 6s 11 13 mph 1020.5mb 70f 70f
1:50pm 3.5ft 9s 6s 13 16 mph 1020mb 70f 70f
12:50pm 3.5ft 9s 6s 11 13 mph 1019.5mb 70f 69f